createdAt,value
2017-07-28T08:02:10.791Z,94551.80
2017-07-28T08:04:38.547Z,94545.72
2017-07-28T08:07:06.284Z,94557.72
2017-07-28T08:09:34.049Z,94562.63
2017-07-28T08:12:01.745Z,94562.44
2017-07-28T08:14:29.452Z,94559.67
2017-07-28T08:16:57.144Z,94555.73
2017-07-28T08:19:24.929Z,94553.49
2017-07-28T08:21:52.623Z,94559.84
2017-07-28T08:24:20.367Z,94565.48
2017-07-28T08:26:48.071Z,94557.47
2017-07-28T08:29:15.808Z,94565.19
2017-07-28T08:31:43.513Z,94564.88
2017-07-28T08:34:11.241Z,94567.36
2017-07-28T08:36:38.992Z,94564.88
2017-07-28T08:39:06.696Z,94570.67
2017-07-28T08:41:34.403Z,94584.45
2017-07-28T08:44:03.355Z,94581.41
2017-07-28T08:46:33.245Z,94580.59
2017-07-28T08:49:00.993Z,94602.11
2017-07-28T08:51:28.692Z,94591.49
2017-07-28T08:53:56.388Z,94594.84
2017-07-28T08:56:24.123Z,94600.80
2017-07-28T08:58:51.865Z,94594.08
2017-07-28T09:01:19.555Z,94596.08
2017-07-28T09:03:47.247Z,94603.15
2017-07-28T09:06:14.944Z,94594.95
2017-07-28T09:08:42.680Z,94584.11
2017-07-28T09:11:10.380Z,94588.87
2017-07-28T09:13:38.124Z,94596.91
2017-07-28T09:16:05.835Z,94581.46
2017-07-28T09:18:33.573Z,94578.02
2017-07-28T09:21:01.264Z,94586.50
2017-07-28T09:23:29.213Z,94593.00
2017-07-28T09:25:57.005Z,94594.37
2017-07-28T09:28:24.699Z,94599.41
2017-07-28T09:30:52.395Z,94600.34
2017-07-28T09:33:20.125Z,94602.55
2017-07-28T09:35:47.856Z,94600.36
2017-07-28T09:38:15.559Z,94606.04
2017-07-28T09:40:43.260Z,94613.61
2017-07-28T09:43:10.980Z,94599.33
2017-07-28T09:45:38.736Z,94591.69
2017-07-28T09:48:07.192Z,94587.66
2017-07-28T09:50:34.923Z,94582.09
2017-07-28T09:53:02.722Z,94584.52
2017-07-28T09:55:30.419Z,94585.38
2017-07-28T09:57:58.121Z,94585.57
2017-07-28T10:00:25.828Z,94585.50
2017-07-28T10:02:53.528Z,94593.61
2017-07-28T10:05:21.362Z,94586.88
2017-07-28T10:07:49.055Z,94598.98
2017-07-28T10:10:16.796Z,94604.20
2017-07-28T10:12:44.508Z,94594.22
2017-07-28T10:15:12.218Z,94620.04
2017-07-28T10:17:39.920Z,94624.53
2017-07-28T10:20:07.667Z,94626.89
2017-07-28T10:22:35.411Z,94617.45
2017-07-28T10:25:03.116Z,94620.36
2017-07-28T10:27:30.811Z,94615.45
2017-07-28T10:29:58.503Z,94612.56
2017-07-28T10:32:26.247Z,94620.48
2017-07-28T10:34:53.943Z,94610.13
2017-07-28T10:37:21.653Z,94618.44
2017-07-28T10:39:49.491Z,94618.94
2017-07-28T10:42:17.188Z,94629.25
2017-07-28T10:44:44.893Z,94629.91
2017-07-28T10:47:12.613Z,94609.54
2017-07-28T10:49:40.339Z,94610.05
2017-07-28T10:52:08.704Z,94613.69
2017-07-28T10:54:36.465Z,94616.33
2017-07-28T10:57:05.736Z,94618.02
2017-07-28T10:59:33.441Z,94618.41
2017-07-28T11:02:01.183Z,94620.55
2017-07-28T11:04:28.945Z,94628.76
2017-07-28T11:06:56.694Z,94627.75
2017-07-28T11:09:24.451Z,94628.05
2017-07-28T11:11:52.152Z,94630.95
2017-07-28T11:14:19.879Z,94629.49
2017-07-28T11:16:47.609Z,94633.85
2017-07-28T11:19:15.347Z,94631.28
2017-07-28T11:21:43.049Z,94637.72
2017-07-28T11:24:10.859Z,94637.41
2017-07-28T11:26:38.611Z,94641.42
2017-07-28T11:29:06.312Z,94640.98
2017-07-28T11:31:34.158Z,94648.73
2017-07-28T11:34:02.109Z,94656.86
2017-07-28T11:36:29.816Z,94666.33
2017-07-28T11:38:57.511Z,94661.05
2017-07-28T11:41:25.231Z,94650.31
2017-07-28T11:43:53.080Z,94651.46
2017-07-28T11:46:23.955Z,94657.60
2017-07-28T11:48:51.669Z,94660.98
2017-07-28T11:51:19.363Z,94662.48
2017-07-28T11:53:47.069Z,94679.19
2017-07-28T11:56:14.768Z,94667.84
2017-07-28T11:58:42.460Z,94661.14
2017-07-28T12:01:13.447Z,94650.89
2017-07-28T12:03:41.152Z,94657.01
2017-07-28T12:06:09.151Z,94656.93
2017-07-28T12:08:36.856Z,94645.25
2017-07-28T12:11:04.551Z,94652.12
2017-07-28T12:13:32.251Z,94655.84
2017-07-28T12:16:00.113Z,94664.43
2017-07-28T12:18:27.866Z,94666.05
2017-07-28T12:20:55.583Z,94664.70
2017-07-28T12:23:23.305Z,94664.94
2017-07-28T12:25:51.109Z,94659.93
2017-07-28T12:28:18.818Z,94659.78
2017-07-28T12:30:46.556Z,94662.48
2017-07-28T12:33:14.265Z,94657.49
2017-07-28T12:35:42.088Z,94657.14
2017-07-28T12:38:10.637Z,94670.38
2017-07-28T12:40:38.385Z,94665.52
2017-07-28T12:43:06.092Z,94667.91
2017-07-28T12:45:33.815Z,94668.63
2017-07-28T12:48:01.605Z,94667.48
2017-07-28T12:50:29.342Z,94666.34
2017-07-28T12:52:58.141Z,94671.98
2017-07-28T12:55:25.862Z,94670.20
2017-07-28T12:57:53.563Z,94683.08
2017-07-28T13:00:21.269Z,94684.97
2017-07-28T13:02:49.008Z,94681.41
2017-07-28T13:05:16.783Z,94688.34
2017-07-28T13:07:44.509Z,94681.34
2017-07-28T13:10:12.293Z,94676.92
2017-07-28T13:12:40.067Z,94691.80
2017-07-28T13:15:07.785Z,94683.67
2017-07-28T13:17:35.497Z,94684.96
2017-07-28T13:20:03.211Z,94695.61
2017-07-28T13:22:30.945Z,94701.08
2017-07-28T13:24:58.669Z,94696.13
2017-07-28T13:27:26.374Z,94697.41
2017-07-28T13:29:54.164Z,94700.28
2017-07-28T13:32:21.904Z,94694.13
2017-07-28T13:34:49.638Z,94694.95
2017-07-28T13:37:17.365Z,94706.79
2017-07-28T13:39:46.708Z,94705.36
2017-07-28T13:42:14.424Z,94711.94
2017-07-28T13:44:42.167Z,94714.84
2017-07-28T13:47:09.899Z,94720.23
2017-07-28T13:49:37.606Z,94721.62
2017-07-28T13:52:05.318Z,94734.63
2017-07-28T13:54:33.038Z,94729.67
2017-07-28T13:57:00.798Z,94731.80
2017-07-28T13:59:28.505Z,94730.88
2017-07-28T14:01:56.261Z,94729.66
2017-07-28T14:04:23.972Z,94730.88
2017-07-28T14:06:51.710Z,94738.27
2017-07-28T14:09:19.440Z,94729.86
2017-07-28T14:11:47.237Z,94735.59
2017-07-28T14:14:14.958Z,94740.45
2017-07-28T14:16:42.664Z,94734.25
2017-07-28T14:19:10.420Z,94726.58
2017-07-28T14:21:38.130Z,94728.69
2017-07-28T14:24:07.098Z,94737.49
2017-07-28T14:26:34.814Z,94730.50
2017-07-28T14:29:02.516Z,94733.52
2017-07-28T14:31:30.277Z,94740.14
2017-07-28T14:33:58.022Z,94745.08
2017-07-28T14:36:25.741Z,94750.98
2017-07-28T14:38:53.846Z,94754.34
2017-07-28T14:41:21.585Z,94746.23
2017-07-28T14:43:49.297Z,94749.56
2017-07-28T14:46:17.113Z,94747.02
2017-07-28T14:48:44.809Z,94747.10
2017-07-28T14:51:12.552Z,94752.00
2017-07-28T14:53:40.302Z,94755.50
2017-07-28T14:56:09.137Z,94758.95
2017-07-28T14:58:37.103Z,94752.45
2017-07-28T15:01:04.805Z,94755.95
2017-07-28T15:03:32.510Z,94752.64
2017-07-28T15:06:00.224Z,94747.97
2017-07-28T15:08:27.946Z,94747.47
2017-07-28T15:10:55.697Z,94751.18
2017-07-28T15:13:23.422Z,94749.14
2017-07-28T15:15:51.172Z,94753.10
2017-07-28T15:18:18.913Z,94753.25
2017-07-28T15:20:47.797Z,94753.80
2017-07-28T15:23:15.509Z,94754.76
2017-07-28T15:25:43.213Z,94758.03
2017-07-28T15:28:10.957Z,94754.99
2017-07-28T15:30:38.800Z,94762.23
2017-07-28T15:33:06.585Z,94754.59
2017-07-28T15:35:34.345Z,94759.16
2017-07-28T15:38:02.049Z,94759.04
2017-07-28T15:40:29.760Z,94758.59
2017-07-28T15:42:57.610Z,94759.91
2017-07-28T15:45:25.320Z,94768.17
2017-07-28T15:47:53.058Z,94767.74
2017-07-28T15:50:20.813Z,94766.25
2017-07-28T15:52:48.556Z,94767.61
2017-07-28T15:55:16.298Z,94767.59
2017-07-28T15:57:44.008Z,94767.06
2017-07-28T16:00:11.884Z,94764.66
2017-07-28T16:02:39.608Z,94775.77
2017-07-28T16:05:07.357Z,94770.55
2017-07-28T16:07:35.113Z,94785.83
2017-07-28T16:10:02.818Z,94784.33
2017-07-28T16:12:31.910Z,94778.42
2017-07-28T16:14:59.608Z,94779.70
2017-07-28T16:17:27.508Z,94775.48
2017-07-28T16:19:55.210Z,94775.82
2017-07-28T16:22:22.923Z,94780.39
2017-07-28T16:24:50.634Z,94774.64
2017-07-28T16:27:18.410Z,94771.26
2017-07-28T16:29:46.158Z,94772.14
2017-07-28T16:32:13.901Z,94776.39
2017-07-28T16:34:41.641Z,94773.63
2017-07-28T16:37:09.370Z,94778.28
2017-07-28T16:39:37.069Z,94777.66
2017-07-28T16:42:04.784Z,94778.01
2017-07-28T16:44:32.535Z,94785.79
2017-07-28T16:47:00.236Z,94784.36
2017-07-28T16:49:27.993Z,94791.33
2017-07-28T16:51:55.734Z,94783.82
2017-07-28T16:54:23.434Z,94788.33
2017-07-28T16:56:51.180Z,94785.71
2017-07-28T16:59:18.912Z,94779.86
2017-07-28T17:01:46.660Z,94783.98
2017-07-28T17:04:14.411Z,94788.25
2017-07-28T17:06:42.157Z,94788.14
2017-07-28T17:09:09.863Z,94792.02
2017-07-28T17:11:37.613Z,94791.25
2017-07-28T17:14:05.360Z,94797.22
2017-07-28T17:16:33.061Z,94806.14
2017-07-28T17:19:00.813Z,94804.14
2017-07-28T17:21:28.570Z,94809.15
2017-07-28T17:23:56.835Z,94809.19
2017-07-28T17:26:24.608Z,94805.80
2017-07-28T17:28:52.328Z,94809.23
2017-07-28T17:31:20.032Z,94821.70
2017-07-28T17:33:47.733Z,94816.73
2017-07-28T17:36:15.455Z,94819.08
2017-07-28T17:38:43.202Z,94821.28
2017-07-28T17:41:10.932Z,94818.55
2017-07-28T17:43:38.789Z,94818.89
2017-07-28T17:46:06.490Z,94822.91
2017-07-28T17:48:34.192Z,94818.74
2017-07-28T17:51:01.929Z,94829.42
2017-07-28T17:53:29.632Z,94830.60
2017-07-28T17:55:57.336Z,94828.06
2017-07-28T17:58:25.098Z,94822.80
2017-07-28T18:00:53.136Z,94818.31
2017-07-28T18:03:20.838Z,94809.53
2017-07-28T18:05:48.586Z,94825.02
2017-07-28T18:08:16.294Z,94824.72
2017-07-28T18:10:44.005Z,94831.83
2017-07-28T18:13:11.748Z,94835.45
2017-07-28T18:15:39.450Z,94836.02
2017-07-28T18:18:07.161Z,94834.06
2017-07-28T18:20:34.865Z,94833.14
2017-07-28T18:23:02.571Z,94834.39
2017-07-28T18:25:30.284Z,94832.28
2017-07-28T18:27:57.985Z,94831.96
2017-07-28T18:30:25.844Z,94835.91
2017-07-28T18:32:53.554Z,94837.19
2017-07-28T18:35:21.267Z,94837.20
2017-07-28T18:37:48.981Z,94836.53
2017-07-28T18:40:18.993Z,94837.83
2017-07-28T18:42:46.982Z,94842.40
2017-07-28T18:45:14.717Z,94842.82
2017-07-28T18:47:42.429Z,94842.94
2017-07-28T18:50:10.132Z,94842.39
2017-07-28T18:52:37.832Z,94844.08
2017-07-28T18:55:05.657Z,94840.09
2017-07-28T18:57:33.359Z,94839.27
2017-07-28T19:00:01.075Z,94843.69
2017-07-28T19:02:28.780Z,94844.50
2017-07-28T19:04:56.529Z,94851.52
2017-07-28T19:07:24.229Z,94844.83
2017-07-28T19:09:51.937Z,94847.20
2017-07-28T19:12:19.640Z,94851.47
2017-07-28T19:14:47.391Z,94851.11
2017-07-28T19:17:15.097Z,94849.73
2017-07-28T19:19:42.816Z,94847.78
2017-07-28T19:22:10.512Z,94844.11
2017-07-28T19:24:38.267Z,94851.96
2017-07-28T19:27:06.014Z,94853.56
2017-07-28T19:29:33.773Z,94858.03
2017-07-28T19:32:01.489Z,94861.94
2017-07-28T19:34:29.192Z,94860.55
2017-07-28T19:36:56.950Z,94864.07
2017-07-28T19:39:24.654Z,94868.22
2017-07-28T19:41:52.381Z,94874.38
2017-07-28T19:44:21.256Z,94867.73
2017-07-28T19:46:55.233Z,94872.80
2017-07-28T19:49:22.978Z,94880.24
2017-07-28T19:51:50.693Z,94877.02
2017-07-28T19:54:18.501Z,94880.41
2017-07-28T19:56:46.305Z,94880.98
2017-07-28T19:59:14.053Z,94876.41
2017-07-28T20:01:41.821Z,94877.92
2017-07-28T20:04:09.531Z,94879.53
2017-07-28T20:06:37.242Z,94876.31
2017-07-28T20:09:04.961Z,94877.66
2017-07-28T20:11:32.689Z,94879.92
2017-07-28T20:14:00.442Z,94881.29
2017-07-28T20:19:21.765Z,94886.02
2017-07-28T20:21:49.515Z,94881.86
2017-07-28T20:24:17.236Z,94879.57
2017-07-28T20:26:44.995Z,94886.92
2017-07-28T20:29:12.748Z,94884.69
2017-07-28T20:31:40.668Z,94886.40
2017-07-28T20:34:08.399Z,94882.39
2017-07-28T20:36:36.181Z,94886.07
2017-07-28T20:39:03.905Z,94880.63
2017-07-28T20:41:31.625Z,94880.39
2017-07-28T20:43:59.359Z,94872.17
2017-07-28T20:46:27.104Z,94870.13
2017-07-28T20:48:54.808Z,94868.48
2017-07-28T20:51:22.679Z,94866.66
2017-07-28T20:53:50.437Z,94877.00
2017-07-28T20:56:18.144Z,94880.02
2017-07-28T20:58:45.857Z,94877.04
2017-07-28T21:01:13.594Z,94877.08
2017-07-28T21:03:41.437Z,94869.66
2017-07-28T21:06:09.206Z,94871.74
2017-07-28T21:08:37.014Z,94863.98
2017-07-28T21:11:04.725Z,94859.91
2017-07-28T21:13:38.692Z,94872.34
2017-07-28T21:16:06.500Z,94870.89
2017-07-28T21:18:34.858Z,94872.25
2017-07-28T21:21:02.580Z,94873.35
2017-07-28T21:23:30.468Z,94866.51
2017-07-28T21:25:58.230Z,94858.23
2017-07-28T21:28:25.986Z,94857.67
2017-07-28T21:30:53.741Z,94865.78
2017-07-28T21:33:21.604Z,94862.56
2017-07-28T21:35:49.416Z,94862.72
2017-07-28T21:38:17.128Z,94856.81
2017-07-28T21:40:44.900Z,94857.50
2017-07-28T21:43:13.034Z,94851.94
2017-07-28T21:45:40.859Z,94852.83
2017-07-28T21:48:08.601Z,94850.41
2017-07-28T21:50:36.376Z,94848.34
2017-07-28T21:53:04.088Z,94849.26
2017-07-28T21:55:31.831Z,94848.50
2017-07-28T21:57:59.594Z,94844.89
2017-07-28T22:00:27.442Z,94842.89
2017-07-28T22:02:55.202Z,94844.33
2017-07-28T22:05:22.973Z,94840.84
2017-07-28T22:07:50.728Z,94848.48
2017-07-28T22:10:18.440Z,94852.83
2017-07-28T22:12:46.209Z,94854.58
2017-07-28T22:15:13.936Z,94853.56
2017-07-28T22:17:41.656Z,94850.87
2017-07-28T22:20:09.473Z,94855.11
2017-07-28T22:22:37.261Z,94850.28
2017-07-28T22:25:05.018Z,94846.77
2017-07-28T22:27:32.732Z,94843.10
2017-07-28T22:30:00.498Z,94846.39
2017-07-28T22:32:28.309Z,94848.75
2017-07-28T22:34:56.010Z,94857.09
2017-07-28T22:37:23.766Z,94858.65
2017-07-28T22:39:51.526Z,94854.63
2017-07-28T22:42:19.231Z,94854.82
2017-07-28T22:44:46.952Z,94853.91
2017-07-28T22:47:14.656Z,94861.83
2017-07-28T22:49:42.413Z,94869.19
2017-07-28T22:52:10.225Z,94870.83
2017-07-28T22:54:38.050Z,94867.07
2017-07-28T22:57:08.734Z,94870.55
2017-07-28T22:59:36.442Z,94876.30
2017-07-28T23:02:04.426Z,94871.56
2017-07-28T23:04:32.168Z,94875.99
2017-07-28T23:06:59.925Z,94865.44
2017-07-28T23:09:27.690Z,94857.52
2017-07-28T23:11:55.399Z,94863.01
2017-07-28T23:14:24.173Z,94861.53
2017-07-28T23:16:51.877Z,94863.40
2017-07-28T23:19:19.628Z,94863.16
2017-07-28T23:21:47.538Z,94863.83
2017-07-28T23:24:15.248Z,94857.63
2017-07-28T23:26:42.977Z,94857.56
2017-07-28T23:29:10.722Z,94858.50
2017-07-28T23:31:38.497Z,94857.23
2017-07-28T23:34:06.260Z,94850.09
2017-07-28T23:36:34.017Z,94857.38
2017-07-28T23:39:01.780Z,94846.16
2017-07-28T23:41:29.509Z,94853.02
2017-07-28T23:43:57.294Z,94847.00
2017-07-28T23:46:25.009Z,94847.40
2017-07-28T23:48:52.717Z,94844.83
2017-07-28T23:51:20.424Z,94839.63
2017-07-28T23:53:48.124Z,94842.27
2017-07-28T23:56:15.872Z,94843.19
2017-07-28T23:58:43.596Z,94833.05
